createdAt,value
2022-09-02T00:00:19.257Z,100
2022-09-02T00:05:17.285Z,100
2022-09-02T00:10:15.426Z,100
2022-09-02T00:15:13.451Z,100
2022-09-02T00:20:11.324Z,100
2022-09-02T00:25:09.354Z,100
2022-09-02T00:30:07.320Z,100
2022-09-02T00:35:05.362Z,100
2022-09-02T00:40:07.407Z,100
2022-09-02T00:45:04.729Z,100
2022-09-02T00:50:02.657Z,100
2022-09-02T00:55:00.824Z,100
2022-09-02T00:59:58.976Z,100
2022-09-02T01:04:57.073Z,100
2022-09-02T01:09:55.060Z,100
2022-09-02T01:14:53.015Z,100
2022-09-02T01:19:51.403Z,100
2022-09-02T01:24:49.388Z,100
2022-09-02T01:29:47.506Z,100
2022-09-02T01:34:45.472Z,100
2022-09-02T01:39:43.626Z,100
2022-09-02T01:44:41.509Z,100
2022-09-02T01:49:39.579Z,100
2022-09-02T01:54:37.630Z,100
2022-09-02T01:59:35.675Z,100
2022-09-02T02:04:33.734Z,100
2022-09-02T02:09:31.658Z,100
2022-09-02T02:14:29.844Z,100
2022-09-02T02:19:27.756Z,100
2022-09-02T02:24:25.682Z,100
2022-09-02T02:29:23.645Z,100
2022-09-02T02:34:21.742Z,100
2022-09-02T02:39:19.699Z,100
2022-09-02T02:44:17.607Z,100
2022-09-02T02:49:15.641Z,100
2022-09-02T02:54:13.716Z,100
2022-09-02T02:59:11.923Z,100
2022-09-02T03:04:10.024Z,100
2022-09-02T03:09:08.286Z,100
2022-09-02T03:14:06.169Z,100
2022-09-02T03:19:04.131Z,100
2022-09-02T03:24:02.282Z,100
2022-09-02T03:29:00.277Z,100
2022-09-02T03:33:58.402Z,100
2022-09-02T03:38:56.487Z,100
2022-09-02T03:43:54.712Z,100
2022-09-02T03:48:52.811Z,100
2022-09-02T03:53:51.341Z,100
2022-09-02T03:58:49.488Z,100
2022-09-02T04:03:47.608Z,100
2022-09-02T04:08:45.746Z,100
2022-09-02T04:13:43.700Z,100
2022-09-02T04:18:42.055Z,100
2022-09-02T04:23:40.278Z,100
2022-09-02T04:28:38.382Z,100
2022-09-02T04:33:36.257Z,100
2022-09-02T04:38:34.438Z,100
2022-09-02T04:43:32.497Z,100
2022-09-02T04:48:30.702Z,100
2022-09-02T04:53:28.620Z,100
2022-09-02T04:58:26.750Z,100
2022-09-02T05:03:25.145Z,100
2022-09-02T05:08:23.348Z,100
2022-09-02T05:13:21.399Z,100
2022-09-02T05:18:20.030Z,100
2022-09-02T05:23:18.423Z,100
2022-09-02T05:28:16.598Z,100
2022-09-02T05:33:15.168Z,100
2022-09-02T05:38:13.127Z,100
2022-09-02T05:43:11.199Z,100
2022-09-02T05:48:09.649Z,100
2022-09-02T05:53:11.101Z,100
2022-09-02T05:58:06.684Z,100
2022-09-02T06:03:05.367Z,100
2022-09-02T06:08:04.029Z,100
2022-09-02T06:13:03.015Z,100
2022-09-02T06:18:01.200Z,100
2022-09-02T06:22:59.267Z,100
2022-09-02T06:27:57.695Z,100
2022-09-02T06:32:56.049Z,100
2022-09-02T06:37:54.015Z,100
2022-09-02T06:42:53.511Z,100
2022-09-02T06:47:51.755Z,100
2022-09-02T06:52:50.000Z,99.3
2022-09-02T06:57:46.637Z,99.1
2022-09-02T07:02:44.739Z,100
2022-09-02T07:07:42.945Z,100
2022-09-02T07:12:44.162Z,98.2
2022-09-02T07:17:39.711Z,100
2022-09-02T07:22:38.825Z,100
2022-09-02T07:27:36.798Z,100
2022-09-02T07:32:35.040Z,99.7
2022-09-02T07:37:33.541Z,97.5
2022-09-02T07:42:34.798Z,95.4
2022-09-02T07:47:31.977Z,95.1
2022-09-02T07:52:30.044Z,95.2
2022-09-02T07:57:27.953Z,95.6
2022-09-02T08:02:26.097Z,95
2022-09-02T08:07:23.990Z,95.2
2022-09-02T08:12:22.302Z,97.5
2022-09-02T08:17:19.663Z,98.4
2022-09-02T08:22:17.789Z,95
2022-09-02T08:27:16.614Z,93
2022-09-02T08:32:15.478Z,88.1
2022-09-02T08:37:15.147Z,80
2022-09-02T08:42:13.285Z,79.7
2022-09-02T08:47:11.098Z,80.2
2022-09-02T08:52:08.111Z,86.6
2022-09-02T08:57:05.900Z,85.2
2022-09-02T09:02:04.797Z,84.5
2022-09-02T09:07:03.688Z,76
2022-09-02T09:12:02.938Z,71.9
2022-09-02T09:17:01.650Z,68.1
2022-09-02T09:22:00.516Z,66.2
2022-09-02T09:26:57.765Z,67
2022-09-02T09:31:56.248Z,60.1
2022-09-02T09:36:57.142Z,55.7
2022-09-02T09:41:53.970Z,60.3
2022-09-02T09:46:50.560Z,61.7
2022-09-02T09:51:50.158Z,59.6
2022-09-02T09:56:47.025Z,58
2022-09-02T10:01:45.288Z,58.3
2022-09-02T10:06:44.641Z,53.5
2022-09-02T10:11:43.110Z,58
2022-09-02T10:16:41.693Z,57.4
2022-09-02T10:21:41.946Z,55.9
2022-09-02T10:26:36.867Z,59.2
2022-09-02T10:31:34.033Z,60.9
2022-09-02T10:36:33.532Z,57.3
2022-09-02T10:41:31.142Z,60.8
2022-09-02T10:46:31.495Z,51.8
2022-09-02T10:51:29.258Z,46.8
2022-09-02T10:56:30.283Z,44.2
2022-09-02T11:01:30.753Z,44.2
2022-09-02T11:06:40.166Z,38.3
2022-09-02T11:11:24.271Z,49.1
2022-09-02T11:16:23.739Z,40.7
2022-09-02T11:21:21.147Z,44.3
2022-09-02T11:26:21.331Z,40.1
2022-09-02T11:31:20.500Z,42.7
2022-09-02T11:36:16.519Z,47.5
2022-09-02T11:41:33.919Z,41
2022-09-02T11:46:12.509Z,47.6
2022-09-02T11:51:08.676Z,50.6
2022-09-02T11:56:05.544Z,55
2022-09-02T12:01:02.890Z,56
2022-09-02T12:06:00.838Z,58.7
2022-09-02T12:10:59.243Z,61.2
2022-09-02T12:15:56.592Z,62
2022-09-02T12:20:53.990Z,63.3
2022-09-02T12:25:51.709Z,63.7
2022-09-02T12:30:50.608Z,61.5
2022-09-02T12:35:48.944Z,61.5
2022-09-02T12:40:46.304Z,68.9
2022-09-02T12:45:43.641Z,71.4
2022-09-02T12:50:41.334Z,70.6
2022-09-02T12:55:39.044Z,70.3
2022-09-02T13:00:36.905Z,71.5
2022-09-02T13:05:34.731Z,72.4
2022-09-02T13:10:32.455Z,73.6
2022-09-02T13:15:30.505Z,71.5
2022-09-02T13:20:28.557Z,70.5
2022-09-02T13:25:29.080Z,71
2022-09-02T13:30:25.852Z,70.9
2022-09-02T13:35:24.619Z,69.3
2022-09-02T13:40:23.591Z,67.3
2022-09-02T13:45:22.339Z,63.5
2022-09-02T13:50:20.118Z,64.5
2022-09-02T13:55:17.802Z,69.7
2022-09-02T14:00:15.262Z,71.1
2022-09-02T14:05:12.798Z,73.6
2022-09-02T14:10:10.876Z,74.2
2022-09-02T14:15:11.506Z,73
2022-09-02T14:20:09.256Z,71.8
2022-09-02T14:25:07.069Z,75.1
2022-09-02T14:30:05.023Z,76.6
2022-09-02T14:35:02.988Z,76.9
2022-09-02T14:40:01.530Z,79.3
2022-09-02T14:45:01.436Z,83.9
2022-09-02T14:49:58.940Z,88
2022-09-02T14:54:56.944Z,92.2
2022-09-02T14:59:55.167Z,96.4
2022-09-02T15:04:53.233Z,100
2022-09-02T15:09:50.870Z,100
2022-09-02T15:14:49.403Z,100
2022-09-02T15:19:47.692Z,100
2022-09-02T15:24:46.001Z,100
2022-09-02T15:29:44.419Z,100
2022-09-02T15:34:42.785Z,100
2022-09-02T15:39:41.498Z,100
2022-09-02T15:44:39.338Z,100
2022-09-02T15:49:37.837Z,100
2022-09-02T15:54:36.069Z,100
2022-09-02T15:59:34.388Z,100
2022-09-02T16:04:32.724Z,100
2022-09-02T16:09:31.158Z,100
2022-09-02T16:14:29.467Z,100
2022-09-02T16:19:30.163Z,100
2022-09-02T16:24:25.840Z,100
2022-09-02T16:29:24.200Z,100
2022-09-02T16:34:22.127Z,100
2022-09-02T16:39:20.493Z,100
2022-09-02T16:44:19.077Z,100
2022-09-02T16:49:17.628Z,100
2022-09-02T16:54:17.572Z,100
2022-09-02T16:59:13.826Z,100
2022-09-02T17:04:12.083Z,100
2022-09-02T17:09:11.072Z,100
2022-09-02T17:14:09.076Z,100
2022-09-02T17:19:07.196Z,100
2022-09-02T17:24:05.435Z,100
2022-09-02T17:29:03.853Z,100
2022-09-02T17:34:02.793Z,100
2022-09-02T17:39:01.225Z,100
2022-09-02T17:43:59.459Z,100
2022-09-02T17:49:15.650Z,100
2022-09-02T17:53:55.977Z,100
2022-09-02T17:58:55.151Z,100
2022-09-02T18:03:53.632Z,100
2022-09-02T18:08:52.520Z,100
2022-09-02T18:13:54.243Z,100
2022-09-02T18:18:49.121Z,100
2022-09-02T18:23:47.262Z,100
2022-09-02T18:28:45.288Z,100
2022-09-02T18:33:43.571Z,100
2022-09-02T18:38:41.459Z,100
2022-09-02T18:43:39.563Z,100
2022-09-02T18:48:37.504Z,100
2022-09-02T18:53:35.622Z,100
2022-09-02T18:58:33.954Z,100
2022-09-02T19:03:32.081Z,100
2022-09-02T19:08:30.283Z,100
2022-09-02T19:13:28.616Z,100
2022-09-02T19:18:26.683Z,100
2022-09-02T19:23:24.814Z,100
2022-09-02T19:28:23.186Z,100
2022-09-02T19:33:21.205Z,100
2022-09-02T19:38:19.659Z,100
2022-09-02T19:43:17.745Z,100
2022-09-02T19:48:15.605Z,100
2022-09-02T19:53:13.835Z,100
2022-09-02T19:58:12.483Z,100
2022-09-02T20:03:10.317Z,100
2022-09-02T20:08:08.482Z,100
2022-09-02T20:13:06.735Z,100
2022-09-02T20:18:04.842Z,100
2022-09-02T20:23:03.253Z,100
2022-09-02T20:28:02.000Z,100
2022-09-02T20:32:59.240Z,100
2022-09-02T20:37:57.497Z,100
2022-09-02T20:42:55.539Z,100
2022-09-02T20:47:53.640Z,100
2022-09-02T20:52:51.808Z,100
2022-09-02T20:57:49.906Z,100
2022-09-02T21:02:48.554Z,100
2022-09-02T21:07:46.473Z,100
2022-09-02T21:12:44.856Z,100
2022-09-02T21:17:48.697Z,100
2022-09-02T21:22:44.757Z,100
2022-09-02T21:27:42.885Z,100
2022-09-02T21:32:40.849Z,100
2022-09-02T21:37:39.212Z,100
2022-09-02T21:42:37.654Z,100
2022-09-02T21:47:35.697Z,100
2022-09-02T21:52:33.812Z,100
2022-09-02T21:57:31.954Z,100
2022-09-02T22:02:30.161Z,100
2022-09-02T22:07:28.215Z,100
2022-09-02T22:12:26.615Z,100
2022-09-02T22:17:24.929Z,100
2022-09-02T22:22:23.154Z,100
2022-09-02T22:27:21.355Z,100
2022-09-02T22:32:19.528Z,100
2022-09-02T22:37:17.563Z,100
2022-09-02T22:42:15.610Z,100
2022-09-02T22:47:13.561Z,100
2022-09-02T22:52:11.917Z,100
2022-09-02T22:57:10.129Z,100
2022-09-02T23:02:08.424Z,100
2022-09-02T23:07:06.937Z,100
2022-09-02T23:12:05.035Z,100
2022-09-02T23:17:03.165Z,100
2022-09-02T23:22:01.546Z,100
2022-09-02T23:26:59.704Z,100
2022-09-02T23:31:57.834Z,100
2022-09-02T23:36:56.029Z,100
2022-09-02T23:41:54.451Z,100
2022-09-02T23:46:54.194Z,100
2022-09-02T23:51:52.314Z,100
2022-09-02T23:56:50.523Z,100
